Record high temperature 107.1°F Record low temperature 10.6°F Record high gust 49.5 mph Record high average 23.3 mph Record daily rain 11.65 in. Record low windchill 2.7°F Record high barometer 30.818 in. Record low barometer 29.117 in.
Daily high pressure 30.018 in. Daily low pressure 29.990 in. Daily low windchill 49.4°F Daily high heat index 56.8°F Daily high gust speed 1.2 mph W Daily high average speed 0.1 mph W
On the Greenway Weather data
LAST READING AT TIME: 7:53 AM DATE: May 06 2016, time of next update: 7:54 am
Current WeatherOvercast/Dry Current Temperature 56.0°F (13.3°C), Apparent temp 56.8°F, Apparent temp solar 56.8 °F
Maximum Temperature (since midnight)56.8°F at: 12:00 AM Minimum Temperature (since midnight)49.4°F at: 6:23 AM
Average windspeed (ten minute)0.0 mph Wind Direction (ten minute)W (270°)
Windchill Temperature 56.0°F Maximum Gust (last hour)1.0 mph at: 7:41AM
Maximum Gust (since midnight)1.2 mph at: 1:07 AM Maximum 1 minute average (since midnight)0.1 mph at: 1:14 AM
Rainfall (last hour)0.00 in. (0.0 mm) Rainfall (since midnight)0.00 in. (0.0 mm) ---
Rainfall This month 0.28 in. (7.1 mm) Rainfall To date this year 48.79 in. (1239.3 mm)
Maximum rain per minute (last hour)0.00 in/min Maximum rain per hour (last 6 hours)0.00 in/hour
Yesterdays rainfall 0.00 in DewPoint 51.9°F (Wet Bulb :53.8°F )
Humidity 86 %, Humidex 59.2°F Barometer corrected to msl30.012 in. (1016.3 hPa)
Pressure change 0.00 in. (last hour) Trend (last hour)STEADY
Pressure change (last 12 hours)+0.07 in Pressure change (last 6 hours)+0.01 in
Current Indoor Temp. 82.7°F
Current Indoor Hum. 30%
Current Solar 0 W/Mē
Maximum solar (since midnight) 309 W/Mē Minimum solar (since midnight)0 W/Mē
Current 00:00 hours of sunshine today, current sky: Overcast
Sunshine hours for the year: 00:00 hrs Sunshine hours for the month: 00:00 hrs
Current evapotranspiration 0.02 inches per day. Yesterday's reading 0.04

This page is updated from recent data collected by a DAVIS VANTAGE PRO weather station Use the Reload or Refresh facility on your browser to retrieve the latest data.


Click here for the last 24 hour graph
Click here for the last 48 hour graph
Click here for the last 72 hour graph
Click here for the month to date graph


Weather report/warning/Metars

Expires:201605061815;;549797
FPUS56 KPQR 061006
ZFPPQR

ZONE FORECASTS FOR NORTHWEST OREGON AND SOUTHWEST WASHINGTON
NATIONAL WEATHER SERVICE PORTLAND OREGON
306 AM PDT FRI MAY 6 2016

SPOT TEMPERATURES ARE FOR TODAY...TONIGHT...SATURDAY...SATURDAY
NIGHT...AND SUNDAY.


ORZ006-WAZ039-061815-
GREATER PORTLAND METRO AREA-GREATER VANCOUVER AREA-
INCLUDING THE CITIES OF...HILLSBORO...PORTLAND...WILSONVILLE...
OREGON CITY...GRESHAM...TROUTDALE...VANCOUVER...BATTLE GROUND...
RIDGEFIELD...WASHOUGAL...YACOLT...AMBOY
306 AM PDT FRI MAY 6 2016

.TODAY...MOSTLY SUNNY. HIGHS AROUND 80. LIGHT WIND BECOMING NORTH
5 TO 15 MPH IN THE AFTERNOON.
.TONIGHT...CLEAR. LOWS AROUND 55. NORTH WIND 10 TO 15 MPH WITH GUSTS
TO 25 MPH BECOMING LIGHT AFTER MIDNIGHT. 
.SATURDAY...SUNNY. HIGHS 80 TO 85. NORTHWEST WIND 5 TO 10 MPH. 
.SATURDAY NIGHT...CLEAR IN THE EVENING...THEN MOSTLY CLOUDY WITH A
20 PERCENT CHANCE OF RAIN OR DRIZZLE AFTER MIDNIGHT. LOWS AROUND 50.
WEST WIND 5 TO 15 MPH. 
.SUNDAY...MOSTLY CLOUDY. A 40 PERCENT CHANCE OF SHOWERS OR DRIZZLE
IN THE MORNING. COOLER. HIGHS NEAR 65. WEST WIND 5 TO 10 MPH.
.SUNDAY NIGHT...MOSTLY CLOUDY. LOWS 45 TO 50. 
.MONDAY...CLOUDY IN THE MORNING...THEN PARTLY CLOUDY. HIGHS 65 TO
70. 
.MONDAY NIGHT...PARTLY CLOUDY. LOWS 45 TO 50. 
.TUESDAY...MOSTLY SUNNY. HIGHS AROUND 75. 
.TUESDAY NIGHT...MOSTLY CLEAR. LOWS AROUND 50. 
.WEDNESDAY...MOSTLY SUNNY. HIGHS AROUND 80. 
.WEDNESDAY NIGHT...CLEAR. LOWS 50 TO 55. 
.THURSDAY...SUNNY. HIGHS 80 TO 85. 

&&
                  TEMPERATURE         
PORTLAND          81  56  82  53  65
HILLSBORO         81  52  82  50  64

$$
=


PORTLAND-HILLSBORO AIRPORT, OR, United States (KHIO) 45-33N 122-57W 68M
May 06, 2016 - 09:53 AM EDT / 2016.05.06 1353 UTC
Wind: Calm:0
Visibility: 10 mile(s):0
Sky conditions: clear
Temperature: 53.1 F (11.7 C)
Dew Point: 46.9 F (8.3 C)
Relative Humidity: 79%
Pressure (altimeter): 30.02 in. Hg (1016 hPa)
ob: KHIO 061353Z 00000KT 10SM CLR 12/08 A3002 RMK AO2 SLP164 T01170083
cycle: 14
PORTLAND INTERNATIONAL  AIRPORT, OR, United States (KPDX) 45-35N 122-36W 7M
May 06, 2016 - 08:53 AM EDT / 2016.05.06 1253 UTC
Wind: Calm:0
Visibility: 10 mile(s):0
Sky conditions: mostly clear
Temperature: 53.1 F (11.7 C)
Dew Point: 46.9 F (8.3 C)
Relative Humidity: 79%
Pressure (altimeter): 30.02 in. Hg (1016 hPa)
ob: KPDX 061253Z 00000KT 10SM FEW080 12/08 A3002 RMK AO2 SLP163 T01170083
cycle: 13
PORTLAND-TROUTDALE AIRPORT, OR, United States (KTTD) 45-33N 122-25W 14M
May 06, 2016 - 09:53 AM EDT / 2016.05.06 1353 UTC
Wind: Calm:0
Visibility: 10 mile(s):0
Sky conditions: clear
Temperature: 53.1 F (11.7 C)
Dew Point: 48.9 F (9.4 C)
Relative Humidity: 85%
Pressure (altimeter): 30.02 in. Hg (1016 hPa)
ob: KTTD 061353Z AUTO 00000KT 10SM CLR 12/09 A3002 RMK AO2 SLP166 T01170094
cycle: 14
MCMINNVILLE MUNICIPAL AIRPORT , OR, United States (KMMV) 45-12N 123-08W 48M
May 06, 2016 - 09:53 AM EDT / 2016.05.06 1353 UTC
Wind: Calm:0
Visibility: 10 mile(s):0
Sky conditions: clear
Temperature: 50.0 F (10.0 C)
Dew Point: 46.9 F (8.3 C)
Relative Humidity: 89%
Pressure (altimeter): 30.02 in. Hg (1016 hPa)
ob: KMMV 061353Z AUTO 00000KT 10SM CLR 10/08 A3002 RMK AO2 SLP166 T01000083
cycle: 14
SALEM MCNARY FIELD, OR, United States (KSLE) 44-54N 123-00W 59M
May 06, 2016 - 09:56 AM EDT / 2016.05.06 1356 UTC
Wind: from the NNW (340 degrees) at 6 MPH (5 KT):0
Visibility: 10 mile(s):0
Sky conditions: clear
Temperature: 53.1 F (11.7 C)
Dew Point: 46.9 F (8.3 C)
Relative Humidity: 79%
Pressure (altimeter): 30 in. Hg (1015 hPa)
ob: KSLE 061356Z 34005KT 10SM CLR 12/08 A3000 RMK AO2 SLP159 T01170083
cycle: 14

Date: 5/6/2016
Sunrise at:
05:51 am

Sunset at:
08:23 pm

Moonrise at:
06:09 am 05/6/16

Moonset at:
07:06 pm 05/5/16

First Quarter  April 14 2016
Full moon  April 22 2016
Last QuarterApril 30 2016
New moon May 6 2016
Moon age: 28 days,22 hours,14 minutes,1%
Hours of possible daylight today was 14:32:00



Use the RELOAD facility on your browser to retrieve the latest data.

Click here for current Fire weather info
Click here for the daily CLIMATOLOGICAL SUMMARY
Click here for a daily update of the averages/extremes to date for the month




Created by "Weather Display" software version 10.37R at this start time/date 11:48:34 AM 1/13/2016




On The Greenway Weather Web Site

 
 
HELP US OUT
Help us keep this weather station on the web. for the Tigard / Portland internet users to use. If you would like to help, click the donate button below
 
This site is purely funded by donations and by myself (Ray Cooper)
Anything you can do will help keep this station on the net
Average cost per year is $665 to publish and host this site excluding the cost of the weather equipment
Buyastrostuff.com is kind enough to host our DNS and email at no cost.
THANKS GUYS & Gals for helping
Have a Question,or just want to talk. Contact me at:
Ray Cooper @ Buyastrostuff.com
 

Weather Underground PWS KORTIGAR12 Weather Underground PWS KORTIGAR12